sensor_id;sensor_type;location;lat;lon;timestamp;P1;durP1;ratioP1;P2;durP2;ratioP2
65189;SDS011;51777;53.570;9.984;2022-12-16T00:01:30;32.60;;;18.63;;
65189;SDS011;51777;53.570;9.984;2022-12-16T00:03:57;24.70;;;13.68;;
65189;SDS011;51777;53.570;9.984;2022-12-16T00:06:24;39.10;;;19.65;;
65189;SDS011;51777;53.570;9.984;2022-12-16T00:08:50;35.05;;;18.80;;
65189;SDS011;51777;53.570;9.984;2022-12-16T00:11:15;35.63;;;18.80;;
65189;SDS011;51777;53.570;9.984;2022-12-16T00:13:41;38.65;;;18.55;;
65189;SDS011;51777;53.570;9.984;2022-12-16T00:16:08;36.65;;;18.92;;
65189;SDS011;51777;53.570;9.984;2022-12-16T00:18:35;31.42;;;19.50;;
65189;SDS011;51777;53.570;9.984;2022-12-16T00:21:01;32.20;;;16.63;;
65189;SDS011;51777;53.570;9.984;2022-12-16T00:23:27;36.30;;;19.10;;
65189;SDS011;51777;53.570;9.984;2022-12-16T00:25:53;41.03;;;19.83;;
65189;SDS011;51777;53.570;9.984;2022-12-16T00:28:19;33.42;;;17.02;;
65189;SDS011;51777;53.570;9.984;2022-12-16T00:30:47;33.95;;;18.33;;
65189;SDS011;51777;53.570;9.984;2022-12-16T00:33:19;33.92;;;19.17;;
65189;SDS011;51777;53.570;9.984;2022-12-16T00:35:45;31.45;;;16.63;;
65189;SDS011;51777;53.570;9.984;2022-12-16T00:38:11;33.70;;;19.42;;
65189;SDS011;51777;53.570;9.984;2022-12-16T00:40:36;32.13;;;17.95;;
65189;SDS011;51777;53.570;9.984;2022-12-16T00:43:01;38.28;;;19.60;;
65189;SDS011;51777;53.570;9.984;2022-12-16T00:45:27;34.95;;;18.27;;
65189;SDS011;51777;53.570;9.984;2022-12-16T00:47:53;33.22;;;18.25;;
65189;SDS011;51777;53.570;9.984;2022-12-16T00:50:18;37.08;;;18.33;;
65189;SDS011;51777;53.570;9.984;2022-12-16T00:52:45;34.95;;;19.48;;
65189;SDS011;51777;53.570;9.984;2022-12-16T00:55:12;36.67;;;18.05;;
65189;SDS011;51777;53.570;9.984;2022-12-16T00:57:38;36.40;;;18.58;;
65189;SDS011;51777;53.570;9.984;2022-12-16T01:00:03;34.25;;;18.60;;
65189;SDS011;51777;53.570;9.984;2022-12-16T01:02:30;42.35;;;19.27;;
65189;SDS011;51777;53.570;9.984;2022-12-16T01:04:56;34.67;;;19.02;;
65189;SDS011;51777;53.570;9.984;2022-12-16T01:07:22;34.00;;;18.45;;
65189;SDS011;51777;53.570;9.984;2022-12-16T01:09:47;34.38;;;18.92;;
65189;SDS011;51777;53.570;9.984;2022-12-16T01:12:13;36.45;;;18.50;;
65189;SDS011;51777;53.570;9.984;2022-12-16T01:14:38;31.92;;;18.70;;
65189;SDS011;51777;53.570;9.984;2022-12-16T01:17:04;35.45;;;19.80;;
65189;SDS011;51777;53.570;9.984;2022-12-16T01:19:29;34.13;;;19.17;;
65189;SDS011;51777;53.570;9.984;2022-12-16T01:21:55;36.03;;;18.20;;
65189;SDS011;51777;53.570;9.984;2022-12-16T01:24:20;32.67;;;18.67;;
65189;SDS011;51777;53.570;9.984;2022-12-16T01:26:46;34.30;;;18.90;;
65189;SDS011;51777;53.570;9.984;2022-12-16T01:29:11;34.95;;;19.10;;
65189;SDS011;51777;53.570;9.984;2022-12-16T01:31:36;35.55;;;19.95;;
65189;SDS011;51777;53.570;9.984;2022-12-16T01:34:02;32.42;;;18.02;;
65189;SDS011;51777;53.570;9.984;2022-12-16T01:36:28;35.83;;;19.58;;
65189;SDS011;51777;53.570;9.984;2022-12-16T01:38:53;39.08;;;19.23;;
65189;SDS011;51777;53.570;9.984;2022-12-16T01:41:18;35.72;;;18.98;;
65189;SDS011;51777;53.570;9.984;2022-12-16T01:43:44;35.75;;;19.17;;
65189;SDS011;51777;53.570;9.984;2022-12-16T01:46:15;36.88;;;18.73;;
65189;SDS011;51777;53.570;9.984;2022-12-16T01:48:55;37.58;;;18.20;;
65189;SDS011;51777;53.570;9.984;2022-12-16T01:53:51;33.42;;;18.55;;
65189;SDS011;51777;53.570;9.984;2022-12-16T01:56:21;39.65;;;19.13;;
65189;SDS011;51777;53.570;9.984;2022-12-16T01:58:49;32.80;;;18.13;;
65189;SDS011;51777;53.570;9.984;2022-12-16T02:01:16;40.50;;;20.13;;
65189;SDS011;51777;53.570;9.984;2022-12-16T02:03:41;30.88;;;15.73;;
65189;SDS011;51777;53.570;9.984;2022-12-16T02:06:07;34.45;;;17.88;;
65189;SDS011;51777;53.570;9.984;2022-12-16T02:08:32;30.33;;;17.92;;
65189;SDS011;51777;53.570;9.984;2022-12-16T02:11:12;33.10;;;18.50;;
65189;SDS011;51777;53.570;9.984;2022-12-16T02:16:45;34.53;;;18.45;;
65189;SDS011;51777;53.570;9.984;2022-12-16T02:37:44;35.55;;;18.60;;
65189;SDS011;51777;53.570;9.984;2022-12-16T02:43:01;33.63;;;18.23;;
65189;SDS011;51777;53.570;9.984;2022-12-16T02:45:31;33.40;;;16.35;;
65189;SDS011;51777;53.570;9.984;2022-12-16T02:47:59;41.65;;;19.33;;
65189;SDS011;51777;53.570;9.984;2022-12-16T02:50:41;40.08;;;18.40;;
65189;SDS011;51777;53.570;9.984;2022-12-16T02:53:12;30.05;;;16.48;;
65189;SDS011;51777;53.570;9.984;2022-12-16T03:03:53;31.98;;;17.00;;
65189;SDS011;51777;53.570;9.984;2022-12-16T03:06:27;23.73;;;12.27;;
65189;SDS011;51777;53.570;9.984;2022-12-16T03:08:56;35.65;;;17.92;;
65189;SDS011;51777;53.570;9.984;2022-12-16T03:11:26;28.13;;;14.00;;
65189;SDS011;51777;53.570;9.984;2022-12-16T03:13:54;31.00;;;17.42;;
65189;SDS011;51777;53.570;9.984;2022-12-16T03:16:23;37.63;;;19.33;;
65189;SDS011;51777;53.570;9.984;2022-12-16T03:18:53;34.17;;;18.00;;
65189;SDS011;51777;53.570;9.984;2022-12-16T03:21:23;38.58;;;19.85;;
65189;SDS011;51777;53.570;9.984;2022-12-16T03:23:54;35.17;;;18.55;;
65189;SDS011;51777;53.570;9.984;2022-12-16T03:26:26;38.92;;;19.73;;
65189;SDS011;51777;53.570;9.984;2022-12-16T03:31:57;35.35;;;17.08;;
65189;SDS011;51777;53.570;9.984;2022-12-16T03:37:14;35.22;;;18.13;;
65189;SDS011;51777;53.570;9.984;2022-12-16T03:39:41;25.15;;;13.65;;
65189;SDS011;51777;53.570;9.984;2022-12-16T03:42:10;37.35;;;17.52;;
65189;SDS011;51777;53.570;9.984;2022-12-16T03:44:38;36.42;;;18.80;;
65189;SDS011;51777;53.570;9.984;2022-12-16T03:47:04;37.65;;;18.63;;
65189;SDS011;51777;53.570;9.984;2022-12-16T03:49:30;38.28;;;20.17;;
65189;SDS011;51777;53.570;9.984;2022-12-16T03:51:55;38.22;;;19.15;;
65189;SDS011;51777;53.570;9.984;2022-12-16T03:54:21;34.38;;;18.65;;
65189;SDS011;51777;53.570;9.984;2022-12-16T03:56:47;39.72;;;20.25;;
65189;SDS011;51777;53.570;9.984;2022-12-16T03:59:13;38.38;;;19.40;;
65189;SDS011;51777;53.570;9.984;2022-12-16T04:01:38;36.65;;;19.38;;
65189;SDS011;51777;53.570;9.984;2022-12-16T04:04:04;36.47;;;19.45;;
65189;SDS011;51777;53.570;9.984;2022-12-16T04:06:30;41.40;;;19.35;;
65189;SDS011;51777;53.570;9.984;2022-12-16T04:08:55;38.22;;;18.65;;
65189;SDS011;51777;53.570;9.984;2022-12-16T04:11:21;40.28;;;19.85;;
65189;SDS011;51777;53.570;9.984;2022-12-16T04:14:06;38.05;;;19.30;;
65189;SDS011;51777;53.570;9.984;2022-12-16T04:16:53;38.58;;;19.55;;
65189;SDS011;51777;53.570;9.984;2022-12-16T04:19:37;35.72;;;18.95;;
65189;SDS011;51777;53.570;9.984;2022-12-16T04:22:23;38.22;;;19.45;;
65189;SDS011;51777;53.570;9.984;2022-12-16T04:25:18;40.28;;;19.08;;
65189;SDS011;51777;53.570;9.984;2022-12-16T04:27:52;39.10;;;19.77;;
65189;SDS011;51777;53.570;9.984;2022-12-16T04:30:18;35.38;;;19.02;;
65189;SDS011;51777;53.570;9.984;2022-12-16T04:33:00;36.75;;;18.20;;
65189;SDS011;51777;53.570;9.984;2022-12-16T04:35:55;36.00;;;18.40;;
65189;SDS011;51777;53.570;9.984;2022-12-16T04:38:39;40.20;;;18.33;;
65189;SDS011;51777;53.570;9.984;2022-12-16T04:41:23;35.28;;;19.08;;
65189;SDS011;51777;53.570;9.984;2022-12-16T04:44:07;35.58;;;18.65;;
65189;SDS011;51777;53.570;9.984;2022-12-16T04:46:51;37.53;;;18.58;;
65189;SDS011;51777;53.570;9.984;2022-12-16T04:49:35;38.28;;;18.25;;
65189;SDS011;51777;53.570;9.984;2022-12-16T04:52:19;36.60;;;18.10;;
65189;SDS011;51777;53.570;9.984;2022-12-16T04:55:03;43.83;;;19.65;;
65189;SDS011;51777;53.570;9.984;2022-12-16T04:57:52;34.53;;;17.85;;
65189;SDS011;51777;53.570;9.984;2022-12-16T05:00:41;36.25;;;18.30;;
65189;SDS011;51777;53.570;9.984;2022-12-16T05:03:25;37.55;;;17.88;;
65189;SDS011;51777;53.570;9.984;2022-12-16T05:06:10;34.63;;;18.85;;
65189;SDS011;51777;53.570;9.984;2022-12-16T05:08:54;34.40;;;18.88;;
65189;SDS011;51777;53.570;9.984;2022-12-16T05:11:38;31.08;;;18.30;;
65189;SDS011;51777;53.570;9.984;2022-12-16T05:14:22;30.88;;;17.90;;
65189;SDS011;51777;53.570;9.984;2022-12-16T05:17:06;34.15;;;18.15;;
65189;SDS011;51777;53.570;9.984;2022-12-16T05:19:50;38.63;;;19.80;;
65189;SDS011;51777;53.570;9.984;2022-12-16T05:22:34;39.28;;;20.13;;
65189;SDS011;51777;53.570;9.984;2022-12-16T05:25:18;38.25;;;19.58;;
65189;SDS011;51777;53.570;9.984;2022-12-16T05:28:02;36.67;;;19.75;;
65189;SDS011;51777;53.570;9.984;2022-12-16T05:30:46;40.90;;;19.58;;
65189;SDS011;51777;53.570;9.984;2022-12-16T05:33:30;38.35;;;19.98;;
65189;SDS011;51777;53.570;9.984;2022-12-16T05:36:14;41.00;;;20.27;;
65189;SDS011;51777;53.570;9.984;2022-12-16T05:38:59;37.42;;;18.98;;
65189;SDS011;51777;53.570;9.984;2022-12-16T05:41:42;37.15;;;19.70;;
65189;SDS011;51777;53.570;9.984;2022-12-16T05:44:27;36.63;;;19.23;;
65189;SDS011;51777;53.570;9.984;2022-12-16T05:47:10;37.72;;;19.63;;
65189;SDS011;51777;53.570;9.984;2022-12-16T05:49:54;39.33;;;19.58;;
65189;SDS011;51777;53.570;9.984;2022-12-16T05:52:38;37.95;;;20.00;;
65189;SDS011;51777;53.570;9.984;2022-12-16T05:55:22;35.90;;;19.48;;
65189;SDS011;51777;53.570;9.984;2022-12-16T05:58:06;41.70;;;20.48;;
65189;SDS011;51777;53.570;9.984;2022-12-16T06:00:50;36.60;;;20.42;;
65189;SDS011;51777;53.570;9.984;2022-12-16T06:03:34;41.80;;;20.45;;
65189;SDS011;51777;53.570;9.984;2022-12-16T06:06:19;41.30;;;20.63;;
65189;SDS011;51777;53.570;9.984;2022-12-16T06:09:03;40.83;;;20.30;;
65189;SDS011;51777;53.570;9.984;2022-12-16T06:11:47;38.30;;;20.33;;
65189;SDS011;51777;53.570;9.984;2022-12-16T06:14:30;37.20;;;19.48;;
65189;SDS011;51777;53.570;9.984;2022-12-16T06:17:14;38.15;;;20.95;;
65189;SDS011;51777;53.570;9.984;2022-12-16T06:19:58;38.22;;;19.73;;
65189;SDS011;51777;53.570;9.984;2022-12-16T06:22:42;42.03;;;20.40;;
65189;SDS011;51777;53.570;9.984;2022-12-16T06:25:26;39.35;;;20.40;;
65189;SDS011;51777;53.570;9.984;2022-12-16T06:28:10;39.25;;;19.98;;
65189;SDS011;51777;53.570;9.984;2022-12-16T06:30:54;38.92;;;19.95;;
65189;SDS011;51777;53.570;9.984;2022-12-16T06:33:38;44.13;;;20.98;;
65189;SDS011;51777;53.570;9.984;2022-12-16T06:36:22;38.05;;;19.77;;
65189;SDS011;51777;53.570;9.984;2022-12-16T06:39:06;39.88;;;20.92;;
65189;SDS011;51777;53.570;9.984;2022-12-16T06:41:50;38.13;;;20.27;;
65189;SDS011;51777;53.570;9.984;2022-12-16T06:44:34;41.95;;;20.13;;
65189;SDS011;51777;53.570;9.984;2022-12-16T06:47:17;38.40;;;20.63;;
65189;SDS011;51777;53.570;9.984;2022-12-16T06:50:02;36.95;;;20.30;;
65189;SDS011;51777;53.570;9.984;2022-12-16T06:52:46;39.47;;;21.15;;
65189;SDS011;51777;53.570;9.984;2022-12-16T06:55:30;42.72;;;20.65;;
65189;SDS011;51777;53.570;9.984;2022-12-16T06:58:14;35.47;;;19.60;;
65189;SDS011;51777;53.570;9.984;2022-12-16T07:00:58;37.70;;;20.77;;
65189;SDS011;51777;53.570;9.984;2022-12-16T07:03:42;35.10;;;18.88;;
65189;SDS011;51777;53.570;9.984;2022-12-16T07:06:26;40.42;;;20.38;;
65189;SDS011;51777;53.570;9.984;2022-12-16T07:09:10;38.88;;;20.67;;
65189;SDS011;51777;53.570;9.984;2022-12-16T07:11:54;42.60;;;20.73;;
65189;SDS011;51777;53.570;9.984;2022-12-16T07:14:38;42.03;;;20.38;;
65189;SDS011;51777;53.570;9.984;2022-12-16T07:17:22;40.67;;;19.90;;
65189;SDS011;51777;53.570;9.984;2022-12-16T07:20:05;39.15;;;19.73;;
65189;SDS011;51777;53.570;9.984;2022-12-16T07:22:50;37.95;;;20.60;;
65189;SDS011;51777;53.570;9.984;2022-12-16T07:25:34;39.50;;;19.33;;
65189;SDS011;51777;53.570;9.984;2022-12-16T07:28:18;33.28;;;18.67;;
65189;SDS011;51777;53.570;9.984;2022-12-16T07:31:02;39.88;;;20.75;;
65189;SDS011;51777;53.570;9.984;2022-12-16T07:33:46;36.42;;;19.38;;
65189;SDS011;51777;53.570;9.984;2022-12-16T07:36:30;35.85;;;20.05;;
65189;SDS011;51777;53.570;9.984;2022-12-16T07:39:14;39.15;;;20.58;;
65189;SDS011;51777;53.570;9.984;2022-12-16T07:41:58;39.90;;;20.30;;
65189;SDS011;51777;53.570;9.984;2022-12-16T07:44:42;38.65;;;20.38;;
65189;SDS011;51777;53.570;9.984;2022-12-16T07:47:26;36.05;;;19.65;;
65189;SDS011;51777;53.570;9.984;2022-12-16T07:50:10;37.53;;;20.13;;
65189;SDS011;51777;53.570;9.984;2022-12-16T07:52:54;45.67;;;20.83;;
65189;SDS011;51777;53.570;9.984;2022-12-16T07:55:39;41.47;;;21.20;;
65189;SDS011;51777;53.570;9.984;2022-12-16T07:58:23;40.15;;;20.45;;
65189;SDS011;51777;53.570;9.984;2022-12-16T08:01:07;37.42;;;18.88;;
65189;SDS011;51777;53.570;9.984;2022-12-16T08:03:51;38.20;;;19.08;;
65189;SDS011;51777;53.570;9.984;2022-12-16T08:06:35;38.72;;;20.88;;
65189;SDS011;51777;53.570;9.984;2022-12-16T08:09:19;38.75;;;20.48;;
65189;SDS011;51777;53.570;9.984;2022-12-16T08:12:04;39.30;;;20.30;;
65189;SDS011;51777;53.570;9.984;2022-12-16T08:14:48;37.92;;;20.00;;
65189;SDS011;51777;53.570;9.984;2022-12-16T08:17:33;41.53;;;21.33;;
65189;SDS011;51777;53.570;9.984;2022-12-16T08:20:17;42.65;;;21.40;;
65189;SDS011;51777;53.570;9.984;2022-12-16T08:23:05;42.70;;;22.70;;
65189;SDS011;51777;53.570;9.984;2022-12-16T08:25:49;39.22;;;20.92;;
65189;SDS011;51777;53.570;9.984;2022-12-16T08:28:33;44.67;;;20.40;;
65189;SDS011;51777;53.570;9.984;2022-12-16T08:31:18;47.90;;;21.35;;
65189;SDS011;51777;53.570;9.984;2022-12-16T08:34:02;39.67;;;20.40;;
65189;SDS011;51777;53.570;9.984;2022-12-16T08:36:46;46.40;;;21.77;;
65189;SDS011;51777;53.570;9.984;2022-12-16T08:39:30;37.38;;;21.10;;
65189;SDS011;51777;53.570;9.984;2022-12-16T08:42:14;63.60;;;29.00;;
65189;SDS011;51777;53.570;9.984;2022-12-16T08:44:58;42.72;;;21.27;;
65189;SDS011;51777;53.570;9.984;2022-12-16T08:47:42;41.47;;;21.13;;
65189;SDS011;51777;53.570;9.984;2022-12-16T08:50:27;39.95;;;21.73;;
65189;SDS011;51777;53.570;9.984;2022-12-16T08:53:11;39.50;;;21.20;;
65189;SDS011;51777;53.570;9.984;2022-12-16T08:55:55;40.85;;;21.15;;
65189;SDS011;51777;53.570;9.984;2022-12-16T08:58:46;38.95;;;21.48;;
65189;SDS011;51777;53.570;9.984;2022-12-16T09:04:37;45.55;;;22.02;;
65189;SDS011;51777;53.570;9.984;2022-12-16T09:07:23;39.05;;;21.45;;
65189;SDS011;51777;53.570;9.984;2022-12-16T09:10:07;44.05;;;22.13;;
65189;SDS011;51777;53.570;9.984;2022-12-16T09:12:51;41.22;;;22.77;;
65189;SDS011;51777;53.570;9.984;2022-12-16T09:15:35;38.78;;;21.88;;
65189;SDS011;51777;53.570;9.984;2022-12-16T09:18:19;37.97;;;21.45;;
65189;SDS011;51777;53.570;9.984;2022-12-16T09:21:06;47.17;;;22.70;;
65189;SDS011;51777;53.570;9.984;2022-12-16T09:23:50;40.75;;;21.85;;
65189;SDS011;51777;53.570;9.984;2022-12-16T09:26:33;44.75;;;22.90;;
65189;SDS011;51777;53.570;9.984;2022-12-16T09:29:17;40.38;;;21.63;;
65189;SDS011;51777;53.570;9.984;2022-12-16T09:32:01;43.38;;;22.52;;
65189;SDS011;51777;53.570;9.984;2022-12-16T09:34:45;38.25;;;21.13;;
65189;SDS011;51777;53.570;9.984;2022-12-16T09:37:29;43.60;;;22.90;;
65189;SDS011;51777;53.570;9.984;2022-12-16T09:40:14;46.35;;;22.05;;
65189;SDS011;51777;53.570;9.984;2022-12-16T09:43:20;44.45;;;22.20;;
65189;SDS011;51777;53.570;9.984;2022-12-16T09:46:11;44.92;;;21.98;;
65189;SDS011;51777;53.570;9.984;2022-12-16T09:52:27;37.92;;;21.63;;
65189;SDS011;51777;53.570;9.984;2022-12-16T09:55:28;39.70;;;21.83;;
65189;SDS011;51777;53.570;9.984;2022-12-16T09:58:16;44.67;;;21.05;;
65189;SDS011;51777;53.570;9.984;2022-12-16T10:01:03;43.58;;;21.65;;
65189;SDS011;51777;53.570;9.984;2022-12-16T10:03:47;39.55;;;21.83;;
65189;SDS011;51777;53.570;9.984;2022-12-16T10:06:33;42.65;;;21.15;;
65189;SDS011;51777;53.570;9.984;2022-12-16T10:21:32;36.10;;;19.77;;
65189;SDS011;51777;53.570;9.984;2022-12-16T10:27:48;43.10;;;22.10;;
65189;SDS011;51777;53.570;9.984;2022-12-16T10:30:33;43.13;;;21.92;;
65189;SDS011;51777;53.570;9.984;2022-12-16T10:33:19;46.65;;;22.85;;
65189;SDS011;51777;53.570;9.984;2022-12-16T10:36:09;42.40;;;22.70;;
65189;SDS011;51777;53.570;9.984;2022-12-16T10:39:04;47.33;;;23.02;;
65189;SDS011;51777;53.570;9.984;2022-12-16T10:41:59;38.90;;;22.33;;
65189;SDS011;51777;53.570;9.984;2022-12-16T10:44:56;42.85;;;22.77;;
65189;SDS011;51777;53.570;9.984;2022-12-16T10:47:44;49.03;;;23.65;;
65189;SDS011;51777;53.570;9.984;2022-12-16T10:50:28;42.78;;;23.05;;
65189;SDS011;51777;53.570;9.984;2022-12-16T10:53:13;43.80;;;23.92;;
65189;SDS011;51777;53.570;9.984;2022-12-16T10:56:10;40.78;;;21.88;;
65189;SDS011;51777;53.570;9.984;2022-12-16T10:59:07;44.03;;;23.77;;
65189;SDS011;51777;53.570;9.984;2022-12-16T11:01:59;52.08;;;23.67;;
65189;SDS011;51777;53.570;9.984;2022-12-16T11:04:45;44.85;;;22.70;;
65189;SDS011;51777;53.570;9.984;2022-12-16T11:07:49;42.13;;;22.73;;
65189;SDS011;51777;53.570;9.984;2022-12-16T11:16:35;46.95;;;23.33;;
65189;SDS011;51777;53.570;9.984;2022-12-16T11:19:19;47.45;;;23.73;;
65189;SDS011;51777;53.570;9.984;2022-12-16T11:22:06;51.00;;;24.60;;
65189;SDS011;51777;53.570;9.984;2022-12-16T11:25:15;44.53;;;23.48;;
65189;SDS011;51777;53.570;9.984;2022-12-16T11:31:13;46.72;;;24.42;;
65189;SDS011;51777;53.570;9.984;2022-12-16T11:33:58;53.13;;;24.60;;
65189;SDS011;51777;53.570;9.984;2022-12-16T11:36:44;54.83;;;25.00;;
65189;SDS011;51777;53.570;9.984;2022-12-16T11:39:30;57.83;;;25.52;;
65189;SDS011;51777;53.570;9.984;2022-12-16T11:42:21;47.45;;;23.80;;
65189;SDS011;51777;53.570;9.984;2022-12-16T11:45:15;53.78;;;24.48;;
65189;SDS011;51777;53.570;9.984;2022-12-16T11:48:11;47.22;;;23.90;;
65189;SDS011;51777;53.570;9.984;2022-12-16T11:51:05;60.80;;;25.90;;
65189;SDS011;51777;53.570;9.984;2022-12-16T11:56:47;51.40;;;24.50;;
65189;SDS011;51777;53.570;9.984;2022-12-16T11:59:50;53.20;;;25.90;;
65189;SDS011;51777;53.570;9.984;2022-12-16T12:02:43;51.88;;;24.67;;
65189;SDS011;51777;53.570;9.984;2022-12-16T12:05:34;52.83;;;25.15;;
65189;SDS011;51777;53.570;9.984;2022-12-16T12:08:38;52.90;;;25.40;;
65189;SDS011;51777;53.570;9.984;2022-12-16T12:11:40;53.95;;;25.63;;
65189;SDS011;51777;53.570;9.984;2022-12-16T12:17:50;48.25;;;25.85;;
65189;SDS011;51777;53.570;9.984;2022-12-16T12:30:23;51.88;;;26.15;;
65189;SDS011;51777;53.570;9.984;2022-12-16T12:36:32;51.30;;;25.20;;
65189;SDS011;51777;53.570;9.984;2022-12-16T12:43:02;53.95;;;26.48;;
65189;SDS011;51777;53.570;9.984;2022-12-16T12:58:04;62.15;;;27.00;;
65189;SDS011;51777;53.570;9.984;2022-12-16T13:00:50;53.67;;;25.40;;
65189;SDS011;51777;53.570;9.984;2022-12-16T13:03:38;47.13;;;24.98;;
65189;SDS011;51777;53.570;9.984;2022-12-16T13:06:44;47.63;;;25.40;;
65189;SDS011;51777;53.570;9.984;2022-12-16T13:09:33;52.05;;;26.38;;
65189;SDS011;51777;53.570;9.984;2022-12-16T13:12:23;56.95;;;27.55;;
65189;SDS011;51777;53.570;9.984;2022-12-16T13:20:48;51.17;;;25.23;;
65189;SDS011;51777;53.570;9.984;2022-12-16T13:23:39;51.97;;;24.85;;
65189;SDS011;51777;53.570;9.984;2022-12-16T13:26:29;50.42;;;25.58;;
65189;SDS011;51777;53.570;9.984;2022-12-16T13:29:22;48.40;;;25.45;;
65189;SDS011;51777;53.570;9.984;2022-12-16T13:32:17;46.60;;;25.65;;
65189;SDS011;51777;53.570;9.984;2022-12-16T13:41:02;52.05;;;26.48;;
65189;SDS011;51777;53.570;9.984;2022-12-16T13:43:55;47.58;;;26.52;;
65189;SDS011;51777;53.570;9.984;2022-12-16T13:46:42;48.55;;;25.48;;
65189;SDS011;51777;53.570;9.984;2022-12-16T13:52:18;48.47;;;24.92;;
65189;SDS011;51777;53.570;9.984;2022-12-16T13:55:13;48.13;;;26.20;;
65189;SDS011;51777;53.570;9.984;2022-12-16T13:58:02;45.92;;;25.73;;
65189;SDS011;51777;53.570;9.984;2022-12-16T14:00:54;48.50;;;26.02;;
65189;SDS011;51777;53.570;9.984;2022-12-16T14:03:48;49.33;;;26.33;;
65189;SDS011;51777;53.570;9.984;2022-12-16T14:06:36;49.97;;;25.55;;
65189;SDS011;51777;53.570;9.984;2022-12-16T14:09:31;51.42;;;26.70;;
65189;SDS011;51777;53.570;9.984;2022-12-16T14:21:12;49.92;;;27.08;;
65189;SDS011;51777;53.570;9.984;2022-12-16T14:24:03;49.63;;;26.75;;
65189;SDS011;51777;53.570;9.984;2022-12-16T14:26:55;46.55;;;27.73;;
65189;SDS011;51777;53.570;9.984;2022-12-16T14:29:39;51.33;;;27.63;;
65189;SDS011;51777;53.570;9.984;2022-12-16T14:35:15;50.78;;;27.55;;
65189;SDS011;51777;53.570;9.984;2022-12-16T14:38:23;56.95;;;27.63;;
65189;SDS011;51777;53.570;9.984;2022-12-16T14:41:15;49.15;;;26.77;;
65189;SDS011;51777;53.570;9.984;2022-12-16T14:44:02;56.37;;;27.47;;
65189;SDS011;51777;53.570;9.984;2022-12-16T14:46:57;57.13;;;28.60;;
65189;SDS011;51777;53.570;9.984;2022-12-16T14:49:52;49.47;;;26.13;;
65189;SDS011;51777;53.570;9.984;2022-12-16T14:52:37;50.80;;;26.67;;
65189;SDS011;51777;53.570;9.984;2022-12-16T14:58:15;48.90;;;27.92;;
65189;SDS011;51777;53.570;9.984;2022-12-16T15:01:20;54.45;;;28.35;;
65189;SDS011;51777;53.570;9.984;2022-12-16T15:04:17;56.22;;;29.30;;
65189;SDS011;51777;53.570;9.984;2022-12-16T15:07:03;51.90;;;27.50;;
65189;SDS011;51777;53.570;9.984;2022-12-16T15:09:53;59.72;;;29.88;;
65189;SDS011;51777;53.570;9.984;2022-12-16T15:12:40;58.53;;;28.63;;
65189;SDS011;51777;53.570;9.984;2022-12-16T15:15:31;58.47;;;29.45;;
65189;SDS011;51777;53.570;9.984;2022-12-16T15:18:25;55.25;;;28.80;;
65189;SDS011;51777;53.570;9.984;2022-12-16T15:21:15;64.37;;;29.70;;
65189;SDS011;51777;53.570;9.984;2022-12-16T15:23:59;63.60;;;31.50;;
65189;SDS011;51777;53.570;9.984;2022-12-16T15:26:43;56.67;;;28.85;;
65189;SDS011;51777;53.570;9.984;2022-12-16T15:29:31;55.00;;;28.55;;
65189;SDS011;51777;53.570;9.984;2022-12-16T15:35:08;56.65;;;28.80;;
65189;SDS011;51777;53.570;9.984;2022-12-16T15:38:17;52.33;;;28.42;;
65189;SDS011;51777;53.570;9.984;2022-12-16T15:41:19;58.90;;;29.27;;
65189;SDS011;51777;53.570;9.984;2022-12-16T15:44:18;55.53;;;28.42;;
65189;SDS011;51777;53.570;9.984;2022-12-16T15:47:15;53.85;;;28.63;;
65189;SDS011;51777;53.570;9.984;2022-12-16T15:50:03;52.45;;;29.33;;
65189;SDS011;51777;53.570;9.984;2022-12-16T15:52:48;56.75;;;29.20;;
65189;SDS011;51777;53.570;9.984;2022-12-16T15:55:33;57.85;;;28.52;;
65189;SDS011;51777;53.570;9.984;2022-12-16T15:58:26;52.65;;;27.73;;
65189;SDS011;51777;53.570;9.984;2022-12-16T16:01:16;55.85;;;29.33;;
65189;SDS011;51777;53.570;9.984;2022-12-16T16:04:03;52.00;;;27.98;;
65189;SDS011;51777;53.570;9.984;2022-12-16T16:07:02;59.10;;;29.73;;
65189;SDS011;51777;53.570;9.984;2022-12-16T16:09:46;56.45;;;28.50;;
65189;SDS011;51777;53.570;9.984;2022-12-16T16:12:29;59.08;;;29.77;;
65189;SDS011;51777;53.570;9.984;2022-12-16T16:15:14;59.35;;;31.05;;
65189;SDS011;51777;53.570;9.984;2022-12-16T16:18:08;60.65;;;31.55;;
65189;SDS011;51777;53.570;9.984;2022-12-16T16:20:52;52.58;;;29.60;;
65189;SDS011;51777;53.570;9.984;2022-12-16T16:23:36;59.60;;;30.42;;
65189;SDS011;51777;53.570;9.984;2022-12-16T16:26:21;56.95;;;29.23;;
65189;SDS011;51777;53.570;9.984;2022-12-16T16:29:09;56.67;;;29.00;;
65189;SDS011;51777;53.570;9.984;2022-12-16T16:31:53;55.55;;;29.83;;
65189;SDS011;51777;53.570;9.984;2022-12-16T16:34:37;59.63;;;31.38;;
65189;SDS011;51777;53.570;9.984;2022-12-16T16:37:21;57.88;;;29.75;;
65189;SDS011;51777;53.570;9.984;2022-12-16T16:40:20;53.88;;;28.90;;
65189;SDS011;51777;53.570;9.984;2022-12-16T16:43:11;59.13;;;30.42;;
65189;SDS011;51777;53.570;9.984;2022-12-16T16:45:58;71.43;;;30.08;;
65189;SDS011;51777;53.570;9.984;2022-12-16T16:48:42;67.50;;;32.53;;
65189;SDS011;51777;53.570;9.984;2022-12-16T16:51:27;58.88;;;30.30;;
65189;SDS011;51777;53.570;9.984;2022-12-16T16:54:20;71.25;;;35.22;;
65189;SDS011;51777;53.570;9.984;2022-12-16T16:57:06;60.55;;;29.00;;
65189;SDS011;51777;53.570;9.984;2022-12-16T16:59:52;57.03;;;30.48;;
65189;SDS011;51777;53.570;9.984;2022-12-16T17:02:36;58.53;;;30.17;;
65189;SDS011;51777;53.570;9.984;2022-12-16T17:05:20;57.75;;;30.13;;
65189;SDS011;51777;53.570;9.984;2022-12-16T17:08:04;57.30;;;31.27;;
65189;SDS011;51777;53.570;9.984;2022-12-16T17:10:48;60.25;;;31.55;;
65189;SDS011;51777;53.570;9.984;2022-12-16T17:13:32;66.40;;;31.50;;
65189;SDS011;51777;53.570;9.984;2022-12-16T17:16:16;62.47;;;32.15;;
65189;SDS011;51777;53.570;9.984;2022-12-16T17:19:00;58.03;;;31.08;;
65189;SDS011;51777;53.570;9.984;2022-12-16T17:21:44;59.80;;;30.92;;
65189;SDS011;51777;53.570;9.984;2022-12-16T17:24:28;59.83;;;31.52;;
65189;SDS011;51777;53.570;9.984;2022-12-16T17:27:13;58.47;;;29.92;;
65189;SDS011;51777;53.570;9.984;2022-12-16T17:29:57;61.45;;;30.83;;
65189;SDS011;51777;53.570;9.984;2022-12-16T17:32:41;69.30;;;33.83;;
65189;SDS011;51777;53.570;9.984;2022-12-16T17:35:25;67.43;;;32.92;;
65189;SDS011;51777;53.570;9.984;2022-12-16T17:38:10;63.90;;;31.63;;
65189;SDS011;51777;53.570;9.984;2022-12-16T17:40:54;70.28;;;31.63;;
65189;SDS011;51777;53.570;9.984;2022-12-16T17:43:38;58.70;;;30.48;;
65189;SDS011;51777;53.570;9.984;2022-12-16T17:46:22;67.47;;;33.38;;
65189;SDS011;51777;53.570;9.984;2022-12-16T17:49:17;60.07;;;31.97;;
65189;SDS011;51777;53.570;9.984;2022-12-16T17:52:00;62.40;;;32.35;;
65189;SDS011;51777;53.570;9.984;2022-12-16T17:54:44;61.88;;;31.80;;
65189;SDS011;51777;53.570;9.984;2022-12-16T17:57:28;60.33;;;31.38;;
65189;SDS011;51777;53.570;9.984;2022-12-16T18:00:12;72.28;;;31.60;;
65189;SDS011;51777;53.570;9.984;2022-12-16T18:02:57;67.45;;;32.40;;
65189;SDS011;51777;53.570;9.984;2022-12-16T18:05:41;65.57;;;32.63;;
65189;SDS011;51777;53.570;9.984;2022-12-16T18:08:25;67.03;;;32.72;;